Terminal Aerodrome Forecast
Issued by NWS

Home | Current Version | Previous Version | Text Only | Print | Product List | Glossary On
Versions: 1 2 3 4 5 6 7 8 9 10 11 12 13 14 15 16 17
000
FTUS43 KPAH 170404 AAA
TAFOWB
TAF AMD
KOWB 170404Z 1704/1724 VRB04KT P6SM VCTS SCT040CB BKN150
     FM170600 VRB03KT P6SM SCT040 BKN150
     FM171400 23012G20KT P6SM SCT025 BKN040
     FM171800 23013G21KT P6SM VCTS BKN030CB=

USA.gov is the U.S. government's official web portal to all federal, state and local government web resources and services.